LKMT/OSR METAR and TAF weather

Enter ICAO airport designator
Station Type Date Time Source
LKMT METAR 2020/07/11 22:30 UTC NOAA

LKMT 112230Z 36003KT 9999 SCT008 11/10 Q1024 NOSIG


Station Type Date Time Source
LKMT Decoded METAR 2020/07/11 22:30 UTC NOAA

Ostrava / Mosnov, Czech Republic (LKMT) 49-41N 018-07E 256M
Jul 11, 2020 - 06:30 PM EDT / 2020.07.11 2230 UTC
Wind: from the N (360 degrees) at 3 MPH (3 KT):0
Visibility: greater than 7 mile(s):0
Sky conditions: partly cloudy
Temperature: 51 F (11 C)
Dew Point: 50 F (10 C)
Relative Humidity: 93%
Pressure (altimeter): 30.24 in. Hg (1024 hPa)
ob: LKMT 112230Z 36003KT 9999 SCT008 11/10 Q1024 NOSIG
cycle: 22

Station Type Date Time Source
LKMT TAF 2020/07/11 20:21 UTC NOAA

TAF
AMD LKMT 112010Z 1120/1300 02008KT 7000 -RA BKN017
TEMPO 1120/1121 4000 RA BKN009
BECMG 1121/1123 9999 SCT033
BECMG 1123/1201 VRB02KT 4000 BR SCT007
TEMPO 1201/1205 2000 BR BKN005 PROB30
TEMPO 1201/1205 0900 FG OVC003
BECMG 1206/1208 02008KT 9999 SCT033
TEMPO 1211/1216 BKN033
BECMG 1219/1222 24004KT

Example: see airport list